sensor_id;sensor_type;location;lat;lon;timestamp;temperature;humidity
13713;DHT22;6928;50.546;7.120;2022-12-07T00:01:20;4.52;90.17
13713;DHT22;6928;50.546;7.120;2022-12-07T00:03:49;4.53;89.97
13713;DHT22;6928;50.546;7.120;2022-12-07T00:06:17;4.51;89.78
13713;DHT22;6928;50.546;7.120;2022-12-07T00:08:45;4.55;90.20
13713;DHT22;6928;50.546;7.120;2022-12-07T00:11:15;4.55;89.92
13713;DHT22;6928;50.546;7.120;2022-12-07T00:13:42;4.56;89.78
13713;DHT22;6928;50.546;7.120;2022-12-07T00:16:12;4.58;89.71
13713;DHT22;6928;50.546;7.120;2022-12-07T00:18:40;4.58;89.95
13713;DHT22;6928;50.546;7.120;2022-12-07T00:21:11;4.61;89.89
13713;DHT22;6928;50.546;7.120;2022-12-07T00:23:38;4.58;89.81
13713;DHT22;6928;50.546;7.120;2022-12-07T00:26:06;4.56;90.15
13713;DHT22;6928;50.546;7.120;2022-12-07T00:28:35;4.53;89.63
13713;DHT22;6928;50.546;7.120;2022-12-07T00:31:04;4.59;90.05
13713;DHT22;6928;50.546;7.120;2022-12-07T00:33:31;4.55;89.79
13713;DHT22;6928;50.546;7.120;2022-12-07T00:35:59;4.53;90.03
13713;DHT22;6928;50.546;7.120;2022-12-07T00:38:28;4.51;90.19
13713;DHT22;6928;50.546;7.120;2022-12-07T00:40:57;4.53;90.20
13713;DHT22;6928;50.546;7.120;2022-12-07T00:43:24;4.55;89.96
13713;DHT22;6928;50.546;7.120;2022-12-07T00:45:53;4.52;90.13
13713;DHT22;6928;50.546;7.120;2022-12-07T00:48:21;4.53;90.30
13713;DHT22;6928;50.546;7.120;2022-12-07T00:50:48;4.53;90.13
13713;DHT22;6928;50.546;7.120;2022-12-07T00:53:15;4.56;90.15
13713;DHT22;6928;50.546;7.120;2022-12-07T00:55:43;4.58;90.33
13713;DHT22;6928;50.546;7.120;2022-12-07T00:58:10;4.52;90.37
13713;DHT22;6928;50.546;7.120;2022-12-07T01:00:39;4.58;90.25
13713;DHT22;6928;50.546;7.120;2022-12-07T01:03:09;4.62;90.17
13713;DHT22;6928;50.546;7.120;2022-12-07T01:05:37;4.59;90.01
13713;DHT22;6928;50.546;7.120;2022-12-07T01:08:05;4.59;90.13
13713;DHT22;6928;50.546;7.120;2022-12-07T01:10:32;4.58;90.14
13713;DHT22;6928;50.546;7.120;2022-12-07T01:12:59;4.59;90.19
13713;DHT22;6928;50.546;7.120;2022-12-07T01:15:26;4.63;90.04
13713;DHT22;6928;50.546;7.120;2022-12-07T01:17:53;4.62;90.02
13713;DHT22;6928;50.546;7.120;2022-12-07T01:20:22;4.63;89.96
13713;DHT22;6928;50.546;7.120;2022-12-07T01:22:49;4.61;90.00
13713;DHT22;6928;50.546;7.120;2022-12-07T01:25:16;4.58;90.03
13713;DHT22;6928;50.546;7.120;2022-12-07T01:27:43;4.59;89.97
13713;DHT22;6928;50.546;7.120;2022-12-07T01:30:11;4.59;90.28
13713;DHT22;6928;50.546;7.120;2022-12-07T01:32:38;4.65;90.28
13713;DHT22;6928;50.546;7.120;2022-12-07T01:35:06;4.65;89.98
13713;DHT22;6928;50.546;7.120;2022-12-07T01:37:36;4.66;90.08
13713;DHT22;6928;50.546;7.120;2022-12-07T01:40:05;4.68;89.78
13713;DHT22;6928;50.546;7.120;2022-12-07T01:42:33;4.68;89.93
13713;DHT22;6928;50.546;7.120;2022-12-07T01:45:40;4.65;90.02
13713;DHT22;6928;50.546;7.120;2022-12-07T01:48:09;4.68;90.03
13713;DHT22;6928;50.546;7.120;2022-12-07T01:50:38;4.70;90.05
13713;DHT22;6928;50.546;7.120;2022-12-07T01:53:09;4.68;90.15
13713;DHT22;6928;50.546;7.120;2022-12-07T01:55:40;4.65;90.29
13713;DHT22;6928;50.546;7.120;2022-12-07T01:58:09;4.65;90.11
13713;DHT22;6928;50.546;7.120;2022-12-07T02:00:38;4.68;90.10
13713;DHT22;6928;50.546;7.120;2022-12-07T02:03:09;4.68;90.04
13713;DHT22;6928;50.546;7.120;2022-12-07T02:05:40;4.69;90.11
13713;DHT22;6928;50.546;7.120;2022-12-07T02:08:08;4.73;89.78
13713;DHT22;6928;50.546;7.120;2022-12-07T02:10:35;4.73;89.61
13713;DHT22;6928;50.546;7.120;2022-12-07T02:13:06;4.69;89.89
13713;DHT22;6928;50.546;7.120;2022-12-07T02:15:44;4.69;89.93
13713;DHT22;6928;50.546;7.120;2022-12-07T02:18:17;4.72;89.55
13713;DHT22;6928;50.546;7.120;2022-12-07T02:20:54;4.75;89.64
13713;DHT22;6928;50.546;7.120;2022-12-07T02:23:41;4.70;89.87
13713;DHT22;6928;50.546;7.120;2022-12-07T02:26:43;4.76;89.62
13713;DHT22;6928;50.546;7.120;2022-12-07T02:29:21;4.73;89.60
13713;DHT22;6928;50.546;7.120;2022-12-07T02:31:56;4.70;89.64
13713;DHT22;6928;50.546;7.120;2022-12-07T02:34:35;4.77;89.64
13713;DHT22;6928;50.546;7.120;2022-12-07T02:37:14;4.76;89.59
13713;DHT22;6928;50.546;7.120;2022-12-07T02:39:50;4.79;89.16
13713;DHT22;6928;50.546;7.120;2022-12-07T02:42:23;4.79;89.30
13713;DHT22;6928;50.546;7.120;2022-12-07T02:44:52;4.82;89.25
13713;DHT22;6928;50.546;7.120;2022-12-07T02:47:21;4.77;89.45
13713;DHT22;6928;50.546;7.120;2022-12-07T02:49:49;4.79;89.28
13713;DHT22;6928;50.546;7.120;2022-12-07T02:52:17;4.80;89.40
13713;DHT22;6928;50.546;7.120;2022-12-07T02:54:43;4.80;89.34
13713;DHT22;6928;50.546;7.120;2022-12-07T02:57:30;4.84;89.35
13713;DHT22;6928;50.546;7.120;2022-12-07T03:00:05;4.84;89.57
13713;DHT22;6928;50.546;7.120;2022-12-07T03:02:46;4.86;89.50
13713;DHT22;6928;50.546;7.120;2022-12-07T03:05:29;4.84;89.26
13713;DHT22;6928;50.546;7.120;2022-12-07T03:08:02;4.86;89.45
13713;DHT22;6928;50.546;7.120;2022-12-07T03:10:38;4.83;89.31
13713;DHT22;6928;50.546;7.120;2022-12-07T03:13:12;4.82;89.33
13713;DHT22;6928;50.546;7.120;2022-12-07T03:15:49;4.86;89.49
13713;DHT22;6928;50.546;7.120;2022-12-07T03:18:22;4.84;89.59
13713;DHT22;6928;50.546;7.120;2022-12-07T03:20:52;4.83;89.75
13713;DHT22;6928;50.546;7.120;2022-12-07T03:23:21;4.84;89.96
13713;DHT22;6928;50.546;7.120;2022-12-07T03:25:55;4.87;90.00
13713;DHT22;6928;50.546;7.120;2022-12-07T03:28:24;4.84;90.27
13713;DHT22;6928;50.546;7.120;2022-12-07T03:30:59;4.83;90.15
13713;DHT22;6928;50.546;7.120;2022-12-07T03:33:31;4.86;89.91
13713;DHT22;6928;50.546;7.120;2022-12-07T03:36:04;4.87;90.24
13713;DHT22;6928;50.546;7.120;2022-12-07T03:38:36;4.89;90.08
13713;DHT22;6928;50.546;7.120;2022-12-07T03:41:08;4.87;89.68
13713;DHT22;6928;50.546;7.120;2022-12-07T03:43:36;4.87;89.80
13713;DHT22;6928;50.546;7.120;2022-12-07T03:46:15;4.90;90.00
13713;DHT22;6928;50.546;7.120;2022-12-07T03:48:54;4.90;89.88
13713;DHT22;6928;50.546;7.120;2022-12-07T03:51:28;4.89;89.81
13713;DHT22;6928;50.546;7.120;2022-12-07T03:54:00;4.87;89.94
13713;DHT22;6928;50.546;7.120;2022-12-07T03:56:31;4.89;90.00
13713;DHT22;6928;50.546;7.120;2022-12-07T03:58:59;4.93;90.30
13713;DHT22;6928;50.546;7.120;2022-12-07T04:01:27;4.90;90.52
13713;DHT22;6928;50.546;7.120;2022-12-07T04:03:54;4.87;90.70
13713;DHT22;6928;50.546;7.120;2022-12-07T04:06:21;4.90;90.78
13713;DHT22;6928;50.546;7.120;2022-12-07T04:08:48;4.84;90.92
13713;DHT22;6928;50.546;7.120;2022-12-07T04:11:14;4.86;90.95
13713;DHT22;6928;50.546;7.120;2022-12-07T04:13:41;4.83;91.03
13713;DHT22;6928;50.546;7.120;2022-12-07T04:16:27;4.83;91.03
13713;DHT22;6928;50.546;7.120;2022-12-07T04:18:54;4.80;91.03
13713;DHT22;6928;50.546;7.120;2022-12-07T04:21:21;4.82;91.23
13713;DHT22;6928;50.546;7.120;2022-12-07T04:23:47;4.86;91.30
13713;DHT22;6928;50.546;7.120;2022-12-07T04:26:14;4.83;91.34
13713;DHT22;6928;50.546;7.120;2022-12-07T04:28:41;4.80;91.61
13713;DHT22;6928;50.546;7.120;2022-12-07T04:31:08;4.84;91.29
13713;DHT22;6928;50.546;7.120;2022-12-07T04:33:36;4.83;91.40
13713;DHT22;6928;50.546;7.120;2022-12-07T04:36:04;4.83;91.30
13713;DHT22;6928;50.546;7.120;2022-12-07T04:38:31;4.97;91.34
13713;DHT22;6928;50.546;7.120;2022-12-07T04:40:58;4.86;91.21
13713;DHT22;6928;50.546;7.120;2022-12-07T04:43:24;4.86;91.30
13713;DHT22;6928;50.546;7.120;2022-12-07T04:45:51;4.87;91.47
13713;DHT22;6928;50.546;7.120;2022-12-07T04:48:18;4.90;91.37
13713;DHT22;6928;50.546;7.120;2022-12-07T04:50:49;4.84;91.50
13713;DHT22;6928;50.546;7.120;2022-12-07T04:53:16;4.80;91.70
13713;DHT22;6928;50.546;7.120;2022-12-07T04:55:44;4.86;91.87
13713;DHT22;6928;50.546;7.120;2022-12-07T04:58:11;4.89;91.62
13713;DHT22;6928;50.546;7.120;2022-12-07T05:00:39;4.86;91.57
13713;DHT22;6928;50.546;7.120;2022-12-07T05:03:06;4.87;91.59
13713;DHT22;6928;50.546;7.120;2022-12-07T05:05:33;4.89;91.54
13713;DHT22;6928;50.546;7.120;2022-12-07T05:08:01;4.93;91.41
13713;DHT22;6928;50.546;7.120;2022-12-07T05:10:27;4.93;91.36
13713;DHT22;6928;50.546;7.120;2022-12-07T05:12:54;4.94;91.31
13713;DHT22;6928;50.546;7.120;2022-12-07T05:15:21;4.93;91.33
13713;DHT22;6928;50.546;7.120;2022-12-07T05:17:48;4.96;91.32
13713;DHT22;6928;50.546;7.120;2022-12-07T05:20:15;4.93;91.28
13713;DHT22;6928;50.546;7.120;2022-12-07T05:22:41;4.94;91.25
13713;DHT22;6928;50.546;7.120;2022-12-07T05:25:10;4.97;91.49
13713;DHT22;6928;50.546;7.120;2022-12-07T05:27:36;4.97;91.25
13713;DHT22;6928;50.546;7.120;2022-12-07T05:30:05;4.94;91.19
13713;DHT22;6928;50.546;7.120;2022-12-07T05:32:32;4.97;91.07
13713;DHT22;6928;50.546;7.120;2022-12-07T05:34:59;4.99;91.13
13713;DHT22;6928;50.546;7.120;2022-12-07T05:37:26;5.03;90.80
13713;DHT22;6928;50.546;7.120;2022-12-07T05:39:52;5.04;90.93
13713;DHT22;6928;50.546;7.120;2022-12-07T05:42:20;5.00;90.96
13713;DHT22;6928;50.546;7.120;2022-12-07T05:44:47;4.91;91.20
13713;DHT22;6928;50.546;7.120;2022-12-07T05:47:15;4.94;91.15
13713;DHT22;6928;50.546;7.120;2022-12-07T05:49:41;4.99;90.80
13713;DHT22;6928;50.546;7.120;2022-12-07T05:52:08;5.01;90.44
13713;DHT22;6928;50.546;7.120;2022-12-07T05:54:35;5.04;90.60
13713;DHT22;6928;50.546;7.120;2022-12-07T05:57:02;5.01;90.51
13713;DHT22;6928;50.546;7.120;2022-12-07T05:59:30;5.01;90.62
13713;DHT22;6928;50.546;7.120;2022-12-07T06:01:58;5.01;90.36
13713;DHT22;6928;50.546;7.120;2022-12-07T06:04:27;5.04;90.54
13713;DHT22;6928;50.546;7.120;2022-12-07T06:06:54;5.00;90.43
13713;DHT22;6928;50.546;7.120;2022-12-07T06:09:23;4.93;90.42
13713;DHT22;6928;50.546;7.120;2022-12-07T06:11:50;4.94;90.37
13713;DHT22;6928;50.546;7.120;2022-12-07T06:14:36;4.93;90.52
13713;DHT22;6928;50.546;7.120;2022-12-07T06:17:03;4.91;90.60
13713;DHT22;6928;50.546;7.120;2022-12-07T06:19:30;4.90;90.62
13713;DHT22;6928;50.546;7.120;2022-12-07T06:21:58;5.00;90.52
13713;DHT22;6928;50.546;7.120;2022-12-07T06:24:25;4.97;90.40
13713;DHT22;6928;50.546;7.120;2022-12-07T06:26:52;4.97;90.53
13713;DHT22;6928;50.546;7.120;2022-12-07T06:29:18;4.93;90.28
13713;DHT22;6928;50.546;7.120;2022-12-07T06:31:46;4.96;90.65
13713;DHT22;6928;50.546;7.120;2022-12-07T06:34:16;4.91;90.67
13713;DHT22;6928;50.546;7.120;2022-12-07T06:36:44;4.94;90.58
13713;DHT22;6928;50.546;7.120;2022-12-07T06:39:11;4.89;90.61
13713;DHT22;6928;50.546;7.120;2022-12-07T06:41:39;4.93;90.25
13713;DHT22;6928;50.546;7.120;2022-12-07T06:44:06;4.87;90.38
13713;DHT22;6928;50.546;7.120;2022-12-07T06:46:33;4.82;90.34
13713;DHT22;6928;50.546;7.120;2022-12-07T06:49:03;4.82;90.43
13713;DHT22;6928;50.546;7.120;2022-12-07T06:51:30;4.79;90.24
13713;DHT22;6928;50.546;7.120;2022-12-07T06:53:57;4.79;90.20
13713;DHT22;6928;50.546;7.120;2022-12-07T06:56:24;4.82;90.02
13713;DHT22;6928;50.546;7.120;2022-12-07T06:58:50;4.82;90.11
13713;DHT22;6928;50.546;7.120;2022-12-07T07:01:18;4.77;90.14
13713;DHT22;6928;50.546;7.120;2022-12-07T07:03:45;4.79;90.18
13713;DHT22;6928;50.546;7.120;2022-12-07T07:06:14;4.82;90.03
13713;DHT22;6928;50.546;7.120;2022-12-07T07:08:41;4.80;89.86
13713;DHT22;6928;50.546;7.120;2022-12-07T07:11:09;4.80;89.91
13713;DHT22;6928;50.546;7.120;2022-12-07T07:13:36;4.79;90.18
13713;DHT22;6928;50.546;7.120;2022-12-07T07:16:04;4.84;89.85
13713;DHT22;6928;50.546;7.120;2022-12-07T07:18:31;4.83;89.84
13713;DHT22;6928;50.546;7.120;2022-12-07T07:20:58;4.79;89.84
13713;DHT22;6928;50.546;7.120;2022-12-07T07:23:27;4.76;89.77
13713;DHT22;6928;50.546;7.120;2022-12-07T07:25:54;4.84;90.01
13713;DHT22;6928;50.546;7.120;2022-12-07T07:28:21;4.76;90.25
13713;DHT22;6928;50.546;7.120;2022-12-07T07:30:48;4.75;90.38
13713;DHT22;6928;50.546;7.120;2022-12-07T07:33:15;4.72;90.37
13713;DHT22;6928;50.546;7.120;2022-12-07T07:35:42;4.75;90.52
13713;DHT22;6928;50.546;7.120;2022-12-07T07:38:08;4.72;90.37
13713;DHT22;6928;50.546;7.120;2022-12-07T07:40:37;4.75;90.30
13713;DHT22;6928;50.546;7.120;2022-12-07T07:43:03;4.66;90.32
13713;DHT22;6928;50.546;7.120;2022-12-07T07:45:30;4.68;90.17
13713;DHT22;6928;50.546;7.120;2022-12-07T07:47:57;4.66;90.06
13713;DHT22;6928;50.546;7.120;2022-12-07T07:50:24;4.65;90.04
13713;DHT22;6928;50.546;7.120;2022-12-07T07:52:51;4.69;90.02
13713;DHT22;6928;50.546;7.120;2022-12-07T07:55:19;4.66;89.88
13713;DHT22;6928;50.546;7.120;2022-12-07T07:57:47;4.65;89.70
13713;DHT22;6928;50.546;7.120;2022-12-07T08:00:15;4.66;89.82
13713;DHT22;6928;50.546;7.120;2022-12-07T08:02:43;4.68;89.79
13713;DHT22;6928;50.546;7.120;2022-12-07T08:05:11;4.69;90.04
13713;DHT22;6928;50.546;7.120;2022-12-07T08:07:38;4.75;90.02
13713;DHT22;6928;50.546;7.120;2022-12-07T08:10:08;4.76;89.95
13713;DHT22;6928;50.546;7.120;2022-12-07T08:12:37;5.00;89.88
13713;DHT22;6928;50.546;7.120;2022-12-07T08:15:27;4.83;89.98
13713;DHT22;6928;50.546;7.120;2022-12-07T08:17:54;5.30;89.16
13713;DHT22;6928;50.546;7.120;2022-12-07T08:20:22;4.93;89.79
13713;DHT22;6928;50.546;7.120;2022-12-07T08:22:49;4.91;90.05
13713;DHT22;6928;50.546;7.120;2022-12-07T08:25:17;4.90;89.94
13713;DHT22;6928;50.546;7.120;2022-12-07T08:27:43;4.94;89.90
13713;DHT22;6928;50.546;7.120;2022-12-07T08:30:11;5.05;89.91
13713;DHT22;6928;50.546;7.120;2022-12-07T08:32:39;5.03;90.12
13713;DHT22;6928;50.546;7.120;2022-12-07T08:35:07;5.01;89.77
13713;DHT22;6928;50.546;7.120;2022-12-07T08:37:34;5.04;89.80
13713;DHT22;6928;50.546;7.120;2022-12-07T08:40:02;5.03;89.87
13713;DHT22;6928;50.546;7.120;2022-12-07T08:42:29;5.04;89.84
13713;DHT22;6928;50.546;7.120;2022-12-07T08:45:05;5.05;89.88
13713;DHT22;6928;50.546;7.120;2022-12-07T08:47:32;5.08;89.98
13713;DHT22;6928;50.546;7.120;2022-12-07T08:50:01;5.11;89.63
13713;DHT22;6928;50.546;7.120;2022-12-07T08:52:29;5.10;89.77
13713;DHT22;6928;50.546;7.120;2022-12-07T08:54:56;5.18;89.81
13713;DHT22;6928;50.546;7.120;2022-12-07T08:57:25;5.18;89.53
13713;DHT22;6928;50.546;7.120;2022-12-07T08:59:51;5.21;89.61
13713;DHT22;6928;50.546;7.120;2022-12-07T09:02:18;5.17;89.38
13713;DHT22;6928;50.546;7.120;2022-12-07T09:04:45;5.22;89.90
13713;DHT22;6928;50.546;7.120;2022-12-07T09:07:13;5.22;89.61
13713;DHT22;6928;50.546;7.120;2022-12-07T09:09:40;5.25;89.54
13713;DHT22;6928;50.546;7.120;2022-12-07T09:12:07;5.27;89.10
13713;DHT22;6928;50.546;7.120;2022-12-07T09:14:34;5.25;88.71
13713;DHT22;6928;50.546;7.120;2022-12-07T09:17:06;5.30;88.77
13713;DHT22;6928;50.546;7.120;2022-12-07T09:19:33;7.32;91.59
13713;DHT22;6928;50.546;7.120;2022-12-07T09:22:00;5.68;87.83
13713;DHT22;6928;50.546;7.120;2022-12-07T09:24:28;5.45;88.65
13713;DHT22;6928;50.546;7.120;2022-12-07T09:26:55;5.46;88.83
13713;DHT22;6928;50.546;7.120;2022-12-07T09:29:23;5.42;88.65
13713;DHT22;6928;50.546;7.120;2022-12-07T09:31:50;5.41;88.94
13713;DHT22;6928;50.546;7.120;2022-12-07T09:34:17;5.41;88.43
13713;DHT22;6928;50.546;7.120;2022-12-07T09:36:44;5.42;88.22
13713;DHT22;6928;50.546;7.120;2022-12-07T09:39:11;5.46;88.11
13713;DHT22;6928;50.546;7.120;2022-12-07T09:41:41;5.49;88.03
13713;DHT22;6928;50.546;7.120;2022-12-07T09:44:12;5.52;88.15
13713;DHT22;6928;50.546;7.120;2022-12-07T09:46:41;5.48;87.95
13713;DHT22;6928;50.546;7.120;2022-12-07T09:49:12;5.59;87.80
13713;DHT22;6928;50.546;7.120;2022-12-07T09:51:41;5.65;87.69
13713;DHT22;6928;50.546;7.120;2022-12-07T09:54:08;7.21;90.54
13713;DHT22;6928;50.546;7.120;2022-12-07T09:56:39;7.34;85.83
13713;DHT22;6928;50.546;7.120;2022-12-07T09:59:16;6.42;85.71
13713;DHT22;6928;50.546;7.120;2022-12-07T10:01:44;6.41;85.97
13713;DHT22;6928;50.546;7.120;2022-12-07T10:04:14;6.46;85.92
13713;DHT22;6928;50.546;7.120;2022-12-07T10:06:42;6.25;85.81
13713;DHT22;6928;50.546;7.120;2022-12-07T10:09:11;6.22;86.15
13713;DHT22;6928;50.546;7.120;2022-12-07T10:12:03;6.30;86.11
13713;DHT22;6928;50.546;7.120;2022-12-07T10:14:33;6.27;86.13
13713;DHT22;6928;50.546;7.120;2022-12-07T10:17:01;6.40;86.66
13713;DHT22;6928;50.546;7.120;2022-12-07T10:19:30;6.42;85.92
13713;DHT22;6928;50.546;7.120;2022-12-07T10:22:09;6.25;85.60
13713;DHT22;6928;50.546;7.120;2022-12-07T10:24:36;6.24;85.85
13713;DHT22;6928;50.546;7.120;2022-12-07T10:27:19;6.21;85.94
13713;DHT22;6928;50.546;7.120;2022-12-07T10:29:49;6.22;85.89
13713;DHT22;6928;50.546;7.120;2022-12-07T10:32:32;6.28;85.80
13713;DHT22;6928;50.546;7.120;2022-12-07T10:35:23;6.27;85.57
13713;DHT22;6928;50.546;7.120;2022-12-07T10:37:52;6.31;85.74
13713;DHT22;6928;50.546;7.120;2022-12-07T10:40:39;6.37;85.57
13713;DHT22;6928;50.546;7.120;2022-12-07T10:43:18;6.22;85.57
13713;DHT22;6928;50.546;7.120;2022-12-07T10:50:07;6.55;85.35
13713;DHT22;6928;50.546;7.120;2022-12-07T10:53:01;6.75;84.84
13713;DHT22;6928;50.546;7.120;2022-12-07T10:55:43;6.69;84.63
13713;DHT22;6928;50.546;7.120;2022-12-07T10:58:43;6.92;84.47
13713;DHT22;6928;50.546;7.120;2022-12-07T11:01:18;6.86;84.58
13713;DHT22;6928;50.546;7.120;2022-12-07T11:04:21;6.90;84.21
13713;DHT22;6928;50.546;7.120;2022-12-07T11:06:58;6.95;84.27
13713;DHT22;6928;50.546;7.120;2022-12-07T11:09:46;6.89;83.72
13713;DHT22;6928;50.546;7.120;2022-12-07T11:12:26;7.01;84.39
13713;DHT22;6928;50.546;7.120;2022-12-07T11:15:03;6.86;83.75
13713;DHT22;6928;50.546;7.120;2022-12-07T11:17:40;6.92;83.95
13713;DHT22;6928;50.546;7.120;2022-12-07T11:20:23;7.40;84.15
13713;DHT22;6928;50.546;7.120;2022-12-07T11:23:02;7.62;84.19
13713;DHT22;6928;50.546;7.120;2022-12-07T11:25:34;7.52;82.70
13713;DHT22;6928;50.546;7.120;2022-12-07T11:28:17;7.31;82.55
13713;DHT22;6928;50.546;7.120;2022-12-07T11:30:56;7.04;84.39
13713;DHT22;6928;50.546;7.120;2022-12-07T11:33:29;6.90;85.58
13713;DHT22;6928;50.546;7.120;2022-12-07T11:36:09;6.67;85.07
13713;DHT22;6928;50.546;7.120;2022-12-07T11:38:45;6.65;85.56
13713;DHT22;6928;50.546;7.120;2022-12-07T11:41:18;6.90;86.74
13713;DHT22;6928;50.546;7.120;2022-12-07T11:43:55;6.95;86.89
13713;DHT22;6928;50.546;7.120;2022-12-07T11:46:27;7.06;84.96
13713;DHT22;6928;50.546;7.120;2022-12-07T11:49:02;6.95;83.73
13713;DHT22;6928;50.546;7.120;2022-12-07T11:51:34;6.97;83.65
13713;DHT22;6928;50.546;7.120;2022-12-07T11:54:05;7.44;84.64
13713;DHT22;6928;50.546;7.120;2022-12-07T11:56:37;7.44;83.49
13713;DHT22;6928;50.546;7.120;2022-12-07T11:59:11;7.30;82.96
13713;DHT22;6928;50.546;7.120;2022-12-07T12:01:50;7.58;83.32
13713;DHT22;6928;50.546;7.120;2022-12-07T12:04:35;7.51;81.67
13713;DHT22;6928;50.546;7.120;2022-12-07T12:07:06;7.74;81.94
13713;DHT22;6928;50.546;7.120;2022-12-07T12:09:40;7.26;81.68
13713;DHT22;6928;50.546;7.120;2022-12-07T12:12:43;7.16;82.47
13713;DHT22;6928;50.546;7.120;2022-12-07T12:15:29;7.16;81.16
13713;DHT22;6928;50.546;7.120;2022-12-07T12:18:41;7.55;80.96
13713;DHT22;6928;50.546;7.120;2022-12-07T12:21:15;7.45;80.59
13713;DHT22;6928;50.546;7.120;2022-12-07T12:23:47;7.26;81.37
13713;DHT22;6928;50.546;7.120;2022-12-07T12:26:18;7.32;82.11
13713;DHT22;6928;50.546;7.120;2022-12-07T12:28:54;7.27;81.63
13713;DHT22;6928;50.546;7.120;2022-12-07T12:31:36;7.32;80.90
13713;DHT22;6928;50.546;7.120;2022-12-07T12:34:31;7.24;80.98
13713;DHT22;6928;50.546;7.120;2022-12-07T12:36:58;7.37;81.59
13713;DHT22;6928;50.546;7.120;2022-12-07T12:39:25;7.16;80.91
13713;DHT22;6928;50.546;7.120;2022-12-07T12:42:01;6.95;80.42
13713;DHT22;6928;50.546;7.120;2022-12-07T12:45:19;6.64;80.87
13713;DHT22;6928;50.546;7.120;2022-12-07T12:47:58;6.76;81.78
13713;DHT22;6928;50.546;7.120;2022-12-07T12:50:29;6.96;82.28
13713;DHT22;6928;50.546;7.120;2022-12-07T12:53:16;7.47;81.05
13713;DHT22;6928;50.546;7.120;2022-12-07T12:56:20;7.31;80.63
13713;DHT22;6928;50.546;7.120;2022-12-07T12:58:49;7.54;82.28
13713;DHT22;6928;50.546;7.120;2022-12-07T13:01:42;7.44;80.52
13713;DHT22;6928;50.546;7.120;2022-12-07T13:04:58;7.26;80.93
13713;DHT22;6928;50.546;7.120;2022-12-07T13:07:55;7.28;80.09
13713;DHT22;6928;50.546;7.120;2022-12-07T13:10:39;7.30;80.19
13713;DHT22;6928;50.546;7.120;2022-12-07T13:13:33;7.14;80.39
13713;DHT22;6928;50.546;7.120;2022-12-07T13:16:40;7.59;79.11
13713;DHT22;6928;50.546;7.120;2022-12-07T13:19:58;7.23;80.18
13713;DHT22;6928;50.546;7.120;2022-12-07T13:22:52;7.21;80.35
13713;DHT22;6928;50.546;7.120;2022-12-07T13:25:45;7.30;80.62
13713;DHT22;6928;50.546;7.120;2022-12-07T13:28:17;7.19;81.26
13713;DHT22;6928;50.546;7.120;2022-12-07T13:31:14;7.07;81.03
13713;DHT22;6928;50.546;7.120;2022-12-07T13:33:44;7.01;81.10
13713;DHT22;6928;50.546;7.120;2022-12-07T13:36:20;6.90;81.39
13713;DHT22;6928;50.546;7.120;2022-12-07T13:38:55;6.90;82.00
13713;DHT22;6928;50.546;7.120;2022-12-07T13:41:24;6.80;81.98
13713;DHT22;6928;50.546;7.120;2022-12-07T13:43:59;6.80;81.76
13713;DHT22;6928;50.546;7.120;2022-12-07T13:46:41;6.71;82.26
13713;DHT22;6928;50.546;7.120;2022-12-07T13:49:19;6.67;82.11
13713;DHT22;6928;50.546;7.120;2022-12-07T13:51:47;6.64;82.63
13713;DHT22;6928;50.546;7.120;2022-12-07T13:54:15;6.55;82.14
13713;DHT22;6928;50.546;7.120;2022-12-07T13:56:43;6.46;82.75
13713;DHT22;6928;50.546;7.120;2022-12-07T13:59:14;6.69;82.99
13713;DHT22;6928;50.546;7.120;2022-12-07T14:01:42;6.51;82.88
13713;DHT22;6928;50.546;7.120;2022-12-07T14:04:32;6.20;82.15
13713;DHT22;6928;50.546;7.120;2022-12-07T14:07:01;6.20;82.38
13713;DHT22;6928;50.546;7.120;2022-12-07T14:09:55;6.20;82.55
13713;DHT22;6928;50.546;7.120;2022-12-07T14:12:23;6.14;82.59
13713;DHT22;6928;50.546;7.120;2022-12-07T14:14:50;6.32;83.07
13713;DHT22;6928;50.546;7.120;2022-12-07T14:17:21;6.18;82.48
13713;DHT22;6928;50.546;7.120;2022-12-07T14:19:52;6.18;82.59
13713;DHT22;6928;50.546;7.120;2022-12-07T14:22:30;6.11;83.74
13713;DHT22;6928;50.546;7.120;2022-12-07T14:27:55;6.01;85.79
13713;DHT22;6928;50.546;7.120;2022-12-07T14:30:26;6.01;86.25
13713;DHT22;6928;50.546;7.120;2022-12-07T14:32:57;6.03;86.68
13713;DHT22;6928;50.546;7.120;2022-12-07T14:35:25;5.96;85.67
13713;DHT22;6928;50.546;7.120;2022-12-07T14:37:53;5.90;86.32
13713;DHT22;6928;50.546;7.120;2022-12-07T14:40:24;5.91;86.19
13713;DHT22;6928;50.546;7.120;2022-12-07T14:42:55;5.90;86.21
13713;DHT22;6928;50.546;7.120;2022-12-07T14:45:24;5.94;86.36
13713;DHT22;6928;50.546;7.120;2022-12-07T14:47:51;6.01;86.67
13713;DHT22;6928;50.546;7.120;2022-12-07T14:51:14;5.94;87.06
13713;DHT22;6928;50.546;7.120;2022-12-07T14:53:59;6.00;86.75
13713;DHT22;6928;50.546;7.120;2022-12-07T14:56:27;5.93;87.29
13713;DHT22;6928;50.546;7.120;2022-12-07T14:58:54;6.04;87.83
13713;DHT22;6928;50.546;7.120;2022-12-07T15:01:21;6.00;87.01
13713;DHT22;6928;50.546;7.120;2022-12-07T15:03:48;5.91;87.59
13713;DHT22;6928;50.546;7.120;2022-12-07T15:06:18;5.94;87.85
13713;DHT22;6928;50.546;7.120;2022-12-07T15:08:46;5.94;87.87
13713;DHT22;6928;50.546;7.120;2022-12-07T15:11:15;5.94;87.93
13713;DHT22;6928;50.546;7.120;2022-12-07T15:13:44;5.96;88.27
13713;DHT22;6928;50.546;7.120;2022-12-07T15:16:30;5.91;88.05
13713;DHT22;6928;50.546;7.120;2022-12-07T15:18:56;5.90;87.86
13713;DHT22;6928;50.546;7.120;2022-12-07T15:21:23;5.87;87.00
13713;DHT22;6928;50.546;7.120;2022-12-07T15:23:50;5.97;87.64
13713;DHT22;6928;50.546;7.120;2022-12-07T15:26:18;5.90;86.80
13713;DHT22;6928;50.546;7.120;2022-12-07T15:28:46;5.99;87.28
13713;DHT22;6928;50.546;7.120;2022-12-07T15:31:14;5.80;87.27
13713;DHT22;6928;50.546;7.120;2022-12-07T15:33:41;5.78;87.29
13713;DHT22;6928;50.546;7.120;2022-12-07T15:36:08;5.70;86.73
13713;DHT22;6928;50.546;7.120;2022-12-07T15:38:40;5.91;86.91
13713;DHT22;6928;50.546;7.120;2022-12-07T15:41:07;5.83;86.71
13713;DHT22;6928;50.546;7.120;2022-12-07T15:43:34;6.38;87.92
13713;DHT22;6928;50.546;7.120;2022-12-07T15:46:21;9.71;88.54
13713;DHT22;6928;50.546;7.120;2022-12-07T15:48:48;7.21;83.69
13713;DHT22;6928;50.546;7.120;2022-12-07T15:51:15;7.55;87.52
13713;DHT22;6928;50.546;7.120;2022-12-07T15:53:42;6.27;85.40
13713;DHT22;6928;50.546;7.120;2022-12-07T15:56:09;6.01;85.46
13713;DHT22;6928;50.546;7.120;2022-12-07T15:58:36;5.90;85.27
13713;DHT22;6928;50.546;7.120;2022-12-07T16:01:10;5.85;85.56
13713;DHT22;6928;50.546;7.120;2022-12-07T16:03:39;5.76;85.11
13713;DHT22;6928;50.546;7.120;2022-12-07T16:06:06;5.89;85.18
13713;DHT22;6928;50.546;7.120;2022-12-07T16:08:34;5.80;85.11
13713;DHT22;6928;50.546;7.120;2022-12-07T16:11:05;5.68;85.73
13713;DHT22;6928;50.546;7.120;2022-12-07T16:13:33;5.62;85.66
13713;DHT22;6928;50.546;7.120;2022-12-07T16:16:03;5.72;85.76
13713;DHT22;6928;50.546;7.120;2022-12-07T16:18:30;5.68;86.06
13713;DHT22;6928;50.546;7.120;2022-12-07T16:20:58;5.79;85.92
13713;DHT22;6928;50.546;7.120;2022-12-07T16:23:25;5.61;86.30
13713;DHT22;6928;50.546;7.120;2022-12-07T16:25:52;5.45;86.60
13713;DHT22;6928;50.546;7.120;2022-12-07T16:28:19;5.51;86.27
13713;DHT22;6928;50.546;7.120;2022-12-07T16:30:47;5.52;86.41
13713;DHT22;6928;50.546;7.120;2022-12-07T16:33:14;5.42;86.41
13713;DHT22;6928;50.546;7.120;2022-12-07T16:35:41;5.48;86.10
13713;DHT22;6928;50.546;7.120;2022-12-07T16:38:10;5.49;85.63
13713;DHT22;6928;50.546;7.120;2022-12-07T16:40:37;5.46;85.91